Estación Meteorológica Peña el Pijo (Robertgarden) [ 07/21/17 06:31:59 CEST ]

Fecha Hora Presion(HPa) Temp (°C) Humedad % Rocio (°C) Viento ( m/s) Direccion Lluvia 1Hora(mm) Lluvia 24H(mm) LLuvia Total(mm)
2017-Apr-26 01:01:44 1001.800 12.9 66 6.7       0.51 1358.71
2017-Apr-26 02:01:49 1001.500 12.3 66 6.1       0.51 1358.71
2017-Apr-26 03:01:45 1000.800 11.8 67 5.8       0.51 1358.71
2017-Apr-26 04:03:14 1000.200 11.6 70 6.3       0.51 1358.71
2017-Apr-26 05:01:47 999.800 11.4 71 6.3       0.51 1358.71
2017-Apr-26 06:01:53 999.800 11.5 72 6.6         1358.71
2017-Apr-26 07:01:34 999.700 11.9 71 6.8         1358.71
2017-Apr-26 08:01:48 999.900 11.1 71 6.1         1358.71
2017-Apr-26 09:01:38 1000.100 11.2 72 6.4         1358.71
2017-Apr-26 10:01:42 1000.000 13.1 66 6.9         1358.71
2017-Apr-26 11:01:42 1000.300 15.8 57 7.3         1358.71
2017-Apr-26 12:01:43 1000.400 17.8 49 6.9         1358.71
2017-Apr-26 13:02:02 1000.400 17.8 45 5.6         1358.71
2017-Apr-26 14:01:55 1000.500 17.6 43 4.8 1.0 N     1358.71
2017-Apr-26 15:01:45 1000.700 19.2 37 4.1         1358.71
2017-Apr-26 16:01:52 1000.000 18.9 38 4.2         1358.71
2017-Apr-26 17:01:47 1000.000 21.4 33 4.4 0.8 SW     1358.71
2017-Apr-26 18:02:06 1000.000 19.3 35 3.3 2.3 NNW     1358.71
2017-Apr-26 19:01:42 1000.200 17.5 39 3.3         1358.71
2017-Apr-26 20:01:50 1000.500 14.3 50 4.1         1358.71
2017-Apr-26 21:01:54 1000.600 13.4 57 5.0         1358.71
2017-Apr-26 22:01:38 1000.900 13.3 57 4.9         1358.71
2017-Apr-26 23:01:46 1001.200 12.1 60 4.6         1358.71

Temperatura Máxima:21°    Temperatura Mínima:11°
Presión Máxima:1001.800 Hpa    Presión Mínima:999.700 Hpa


Volver